Time;durP1;ratioP1;P1;durP2;ratioP2;P2;SDS_P1;SDS_P2;PMS_P1;PMS_P2;Temp;Humidity;BMP_temperature;BMP_pressure;BME280_temperature;BME280_humidity;BME280_pressure;Samples;Min_cycle;Max_cycle;Signal;HPM_P1;HPM_P2
2023/07/23 00:02:16;;;;;;;23.50;9.43;;;;;;;15.54;100.00;102287.97;4915829;29;20032;-75
2023/07/23 00:04:42;;;;;;;13.17;8.10;;;;;;;15.53;100.00;104407.25;4918072;29;20032;-75
2023/07/23 00:07:07;;;;;;;13.73;8.33;;;;;;;15.53;100.00;105114.78;4916462;29;20032;-74
2023/07/23 00:09:33;;;;;;;18.80;8.93;;;;;;;15.56;100.00;104766.25;4893130;29;20118;-74
2023/07/23 00:11:58;;;;;;;12.07;7.27;;;;;;;15.55;100.00;104411.63;4916763;29;20042;-75
2023/07/23 00:14:27;;;;;;;18.33;7.43;;;;;;;15.56;100.00;103705.94;4899063;29;20087;-75
2023/07/23 00:16:52;;;;;;;20.23;8.85;;;;;;;15.54;100.00;104056.13;4915956;29;20027;-75
2023/07/23 00:19:20;;;;;;;13.67;8.03;;;;;;;15.53;100.00;105468.59;4918637;28;20115;-74
2023/07/23 00:21:49;;;;;;;15.65;7.68;;;;;;;15.59;100.00;103710.28;4904387;29;20039;-75
2023/07/23 00:24:16;;;;;;;12.57;7.57;;;;;;;15.56;100.00;105120.03;4913854;29;20055;-75
2023/07/23 00:26:42;;;;;;;11.73;7.60;;;;;;;15.56;100.00;105828.63;4899351;29;20032;-74
2023/07/23 00:29:07;;;;;;;22.07;8.17;;;;;;;15.58;100.00;105832.16;4917983;29;20046;-74
2023/07/23 00:31:33;;;;;;;12.73;8.57;;;;;;;15.60;100.00;107605.59;4899071;29;20028;-75
2023/07/23 00:33:58;;;;;;;14.03;7.70;;;;;;;15.61;100.00;109023.88;4900757;29;20487;-75
2023/07/23 00:36:23;;;;;;;15.23;8.97;;;;;;;15.62;100.00;109733.19;4915725;29;20038;-75
2023/07/23 00:38:49;;;;;;;13.70;8.57;;;;;;;15.69;100.00;109038.44;4916841;29;20028;-75
2023/07/23 00:41:14;;;;;;;18.97;8.13;;;;;;;15.68;100.00;110453.75;4905841;29;20051;-75
2023/07/23 00:43:40;;;;;;;14.33;7.90;;;;;;;15.63;100.00;111152.31;4916742;29;20032;-75
2023/07/23 00:46:08;;;;;;;19.53;9.33;;;;;;;15.61;100.00;110795.16;4913757;29;20123;-75
2023/07/23 00:48:34;;;;;;;13.40;8.35;;;;;;;15.62;100.00;110442.66;4915666;29;20440;-75
2023/07/23 00:50:59;;;;;;;14.57;8.07;;;;;;;15.60;100.00;110438.06;4916519;29;20035;-75
2023/07/23 00:53:25;;;;;;;16.20;8.10;;;;;;;15.63;100.00;109026.59;4900092;29;20040;-75
2023/07/23 00:55:52;;;;;;;17.87;9.03;;;;;;;15.61;100.00;109731.34;4898314;29;20028;-75
2023/07/23 00:58:18;;;;;;;;;;;;;;;15.63;100.00;109026.59;4917244;29;20402;-75
2023/07/23 01:00:43;;;;;;;16.15;8.93;;;;;;;15.64;100.00;108320.09;4901139;29;19915;-74
2023/07/23 01:03:08;;;;;;;17.50;8.53;;;;;;;15.66;100.00;107969.56;4923804;29;20466;-76
2023/07/23 01:05:35;;;;;;;13.20;8.90;;;;;;;15.67;100.00;108679.69;4922035;29;20072;-75
2023/07/23 01:08:03;;;;;;;20.83;9.88;;;;;;;15.59;100.00;110437.13;4905958;29;20096;-75
2023/07/23 01:10:31;;;;;;;19.55;11.65;;;;;;;15.68;100.00;108328.22;4907914;29;20099;-74
2023/07/23 01:12:57;;;;;;;23.17;14.82;;;;;;;15.62;100.00;109024.75;4922844;29;20106;-74
2023/07/23 01:15:22;;;;;;;28.67;12.30;;;;;;;15.64;100.00;107966.84;4917787;29;21801;-75
2023/07/23 01:17:50;;;;;;;20.90;9.83;;;;;;;15.62;100.00;109733.19;4901348;29;20031;-75
2023/07/23 01:20:15;;;;;;;15.23;9.60;;;;;;;15.66;100.00;107969.56;4920331;29;20048;-74
2023/07/23 01:22:41;;;;;;;21.63;12.37;;;;;;;15.66;100.00;110095.75;4913085;29;20421;-73
2023/07/23 01:25:06;;;;;;;21.83;13.50;;;;;;;15.52;100.00;112550.25;4917878;29;20048;-73
2023/07/23 01:27:32;;;;;;;20.83;13.30;;;;;;;15.49;100.00;109709.34;4912669;29;20035;-74
2023/07/23 01:29:58;;;;;;;16.27;10.57;;;;;;;15.43;100.00;107574.06;4916156;29;20040;-74
2023/07/23 01:32:23;;;;;;;13.87;9.57;;;;;;;15.45;100.00;104393.28;4895934;29;20050;-75
2023/07/23 01:34:50;;;;;;;16.87;9.80;;;;;;;15.47;100.00;103336.69;4917669;29;20059;-74
2023/07/23 01:37:16;;;;;;;17.40;9.55;;;;;;;15.46;100.00;102980.50;4894853;29;20103;-73
2023/07/23 01:39:42;;;;;;;16.93;9.73;;;;;;;15.49;100.00;101571.59;4916040;29;20032;-74
2023/07/23 01:42:10;;;;;;;18.83;9.85;;;;;;;15.48;100.00;101924.19;4915358;29;20055;-74
2023/07/23 01:44:35;;;;;;;16.65;10.00;;;;;;;15.48;100.00;101570.72;4916598;29;20055;-74
2023/07/23 01:47:01;;;;;;;14.10;9.80;;;;;;;15.50;100.00;102280.28;4913519;29;20488;-74
2023/07/23 01:49:26;;;;;;;16.23;9.70;;;;;;;15.50;100.00;104049.19;4915913;29;20060;-73
2023/07/23 01:51:51;;;;;;;18.23;9.80;;;;;;;15.50;100.00;103694.63;4916234;29;20040;-74
2023/07/23 01:54:17;;;;;;;17.37;9.63;;;;;;;15.58;100.00;106185.19;4916353;29;20024;-74
2023/07/23 01:56:42;;;;;;;13.40;9.10;;;;;;;15.51;100.00;110067.19;4914264;29;20036;-74
2023/07/23 01:59:08;;;;;;;16.03;10.33;;;;;;;15.52;100.00;111487.09;4896035;29;20503;-74
2023/07/23 02:01:34;;;;;;;15.60;10.17;;;;;;;15.50;100.00;115381.91;4915611;29;20146;-73
2023/07/23 02:04:00;;;;;;;21.47;9.60;;;;;;;15.50;100.00;117511.47;4916390;29;20028;-74
2023/07/23 02:06:25;;;;;;;23.70;11.20;;;;;;;15.48;100.00;119281.13;4914503;29;20111;-73
2023/07/23 02:08:50;;;;;;;20.23;11.17;;;;;;;15.52;100.00;117514.41;4915838;29;20028;-73
2023/07/23 02:11:17;;;;;;;17.60;9.47;;;;;;;15.49;100.00;121058.50;4898240;29;20488;-73
2023/07/23 02:13:42;;;;;;;15.02;9.48;;;;;;;15.47;100.00;123542.25;4894828;29;20511;-75
2023/07/23 02:16:16;;;;;;;13.00;8.47;;;;;;;15.48;100.00;126742.81;4913315;29;20107;-74
2023/07/23 02:18:41;;;;;;;13.68;9.05;;;;;;;15.58;100.00;128542.91;4915370;29;20047;-72
2023/07/23 02:21:07;;;;;;;14.03;8.83;;;;;;;15.49;100.00;133151.56;4913887;29;20473;-72
2023/07/23 02:23:33;;;;;;;13.70;8.43;;;;;;;15.49;100.00;135290.47;4899219;29;20079;-72
2023/07/23 02:25:59;;;;;;;13.18;8.90;;;;;;;15.48;100.00;139210.25;4894397;29;20036;-73
2023/07/23 02:28:24;;;;;;;13.33;8.13;;;;;;;15.47;100.00;139921.44;4913840;29;20401;-73
2023/07/23 02:30:59;;;;;;;18.80;9.50;;;;;;;15.50;100.00;142068.59;4894545;29;20028;-72
2023/07/23 02:33:26;;;;;;;16.05;8.48;;;;;;;15.49;100.00;140638.59;4897465;29;20484;-73
2023/07/23 02:35:52;;;;;;;12.55;9.07;;;;;;;15.51;100.00;140643.28;4913760;29;20032;-72
2023/07/23 02:38:17;;;;;;;15.10;8.90;;;;;;;15.49;100.00;142067.44;4894438;29;20042;-72
2023/07/23 02:40:43;;;;;;;12.60;8.00;;;;;;;15.45;100.00;141701.00;4915177;29;20035;-72
2023/07/23 02:43:12;;;;;;;15.43;8.57;;;;;;;15.41;100.00;138836.13;4914679;29;20425;-74
2023/07/23 02:45:40;;;;;;;15.57;8.95;;;;;;;15.43;100.00;140267.69;4914704;29;20028;-75
2023/07/23 02:48:07;;;;;;;19.00;8.32;;;;;;;15.45;100.00;146124.56;4898518;29;20068;-74
2023/07/23 02:50:33;;;;;;;16.40;8.23;;;;;;;15.46;100.00;148994.81;4913769;29;20103;-74
2023/07/23 02:52:58;;;;;;;16.80;8.00;;;;;;;15.43;100.00;151722.84;4914529;29;20166;-75
2023/07/23 02:55:25;;;;;;;17.43;8.00;;;;;;;15.47;100.00;153483.22;4895286;29;20063;-74
2023/07/23 02:57:51;;;;;;;11.85;7.80;;;;;;;15.41;100.00;155112.22;4914821;29;20489;-74
2023/07/23 03:00:20;;;;;;;14.80;8.43;;;;;;;15.42;100.00;155274.28;4909344;29;20040;-74
2023/07/23 03:02:47;;;;;;;20.13;8.10;;;;;;;15.44;100.00;155143.72;4913211;29;20373;-74
2023/07/23 03:05:13;;;;;;;18.10;9.68;;;;;;;15.42;100.00;154948.28;4914310;29;20036;-74
2023/07/23 03:07:38;;;;;;;16.17;8.03;;;;;;;15.41;100.00;154466.09;4894812;29;20028;-74
2023/07/23 03:10:04;;;;;;;17.60;8.03;;;;;;;15.40;100.00;153912.59;4912465;29;20031;-74
2023/07/23 03:12:31;;;;;;;11.30;7.20;;;;;;;15.39;100.00;154122.56;4894801;29;20039;-74
2023/07/23 03:14:57;;;;;;;14.30;7.55;;;;;;;15.38;100.00;154900.25;4914012;29;20087;-75
2023/07/23 03:17:23;;;;;;;19.48;8.38;;;;;;;15.41;100.00;155271.66;4913883;29;20681;-74
2023/07/23 03:19:48;;;;;;;30.00;7.67;;;;;;;15.44;100.00;155279.47;4915765;29;20052;-74
2023/07/23 03:22:15;;;;;;;13.57;8.43;;;;;;;15.44;100.00;155279.47;4913627;29;20036;-75
2023/07/23 03:24:40;;;;;;;;;;;;;;;15.42;100.00;155275.56;4916833;29;20036;-74
2023/07/23 03:27:06;;;;;;;19.40;7.53;;;;;;;15.50;100.00;155295.06;4913389;29;20481;-75
2023/07/23 03:29:31;;;;;;;16.10;7.10;;;;;;;15.54;100.00;155306.75;4898038;29;20039;-75
2023/07/23 03:31:56;;;;;;;14.77;7.40;;;;;;;15.64;100.00;155332.75;4913152;29;20059;-75
2023/07/23 03:34:23;;;;;;;11.27;6.93;;;;;;;15.67;100.00;155340.56;4897032;29;20159;-75
2023/07/23 03:36:48;;;;;;;;;;;;;;;15.68;100.00;155341.88;4902476;29;20043;-74
2023/07/23 03:39:17;;;;;;;12.75;6.60;;;;;;;15.71;100.00;155349.66;4914073;29;19919;-74
2023/07/23 03:41:45;;;;;;;12.30;6.28;;;;;;;15.65;100.00;155335.38;4913950;29;20036;-75
2023/07/23 03:44:11;;;;;;;14.95;6.10;;;;;;;15.69;100.00;155344.47;4914609;29;20039;-75
2023/07/23 03:46:45;;;;;;;16.23;7.37;;;;;;;15.69;100.00;155344.47;4913095;29;20484;-75
2023/07/23 03:49:11;;;;;;;13.60;6.57;;;;;;;15.70;100.00;155347.06;4905751;29;20058;-75
2023/07/23 03:51:37;;;;;;;11.03;6.07;;;;;;;15.67;100.00;155340.56;4914613;29;20042;-75
2023/07/23 03:54:03;;;;;;;13.40;6.83;;;;;;;15.66;100.00;155336.66;4896956;29;20492;-75
2023/07/23 03:56:28;;;;;;;14.80;6.38;;;;;;;15.70;100.00;155347.06;4913140;29;20079;-75
2023/07/23 03:58:54;;;;;;;13.53;6.77;;;;;;;15.68;100.00;155341.88;4895899;29;20127;-75
2023/07/23 04:01:20;;;;;;;11.77;6.37;;;;;;;15.67;100.00;155339.25;4913006;29;20035;-75
2023/07/23 04:03:46;;;;;;;;;;;;;;;15.66;100.00;155337.97;4915204;29;20451;-75
2023/07/23 04:06:11;;;;;;;18.27;6.65;;;;;;;15.74;100.00;155357.47;4914600;29;20005;-74
2023/07/23 04:08:36;;;;;;;17.73;6.60;;;;;;;15.81;100.00;155376.97;4913440;29;20028;-73
2023/07/23 04:11:02;;;;;;;10.63;6.00;;;;;;;15.80;100.00;155374.34;4913705;29;20028;-74
2023/07/23 04:13:27;;;;;;;9.83;5.97;;;;;;;15.78;100.00;155367.84;4913066;29;20114;-74
2023/07/23 04:15:53;;;;;;;14.57;6.37;;;;;;;15.82;100.00;155379.56;4894654;29;20386;-74
2023/07/23 04:18:18;;;;;;;8.67;5.70;;;;;;;15.81;100.00;155375.66;4914294;29;20032;-74
2023/07/23 04:20:44;;;;;;;10.77;6.23;;;;;;;15.81;100.00;155376.97;4905318;29;20052;-74
2023/07/23 04:23:09;;;;;;;13.30;6.47;;;;;;;15.85;100.00;155386.06;4911287;29;20043;-74
2023/07/23 04:25:35;;;;;;;16.33;7.10;;;;;;;15.80;100.00;155373.06;4913198;29;20099;-74
2023/07/23 04:28:00;;;;;;;16.10;7.37;;;;;;;15.84;100.00;155384.75;4911841;29;20033;-75
2023/07/23 04:30:27;;;;;;;16.37;7.13;;;;;;;15.94;100.00;155409.44;4914590;29;20457;-74
2023/07/23 04:32:53;;;;;;;11.38;6.50;;;;;;;15.92;100.00;155404.25;4916725;29;20032;-74
2023/07/23 04:35:19;;;;;;;13.00;7.40;;;;;;;15.94;100.00;155409.44;4916754;29;20358;-75
2023/07/23 04:37:44;;;;;;;12.17;6.83;;;;;;;15.94;100.00;155410.75;4915446;29;20028;-74
2023/07/23 04:40:11;;;;;;;12.87;7.23;;;;;;;15.98;100.00;155421.16;4915157;29;20032;-74
2023/07/23 04:42:36;;;;;;;14.13;7.25;;;;;;;16.02;100.00;155431.53;4917448;29;20492;-74
2023/07/23 04:45:02;;;;;;;12.37;6.30;;;;;;;16.00;100.00;155425.09;4916051;29;20039;-75
2023/07/23 04:47:28;;;;;;;13.73;6.77;;;;;;;16.02;100.00;155431.53;4915362;29;20031;-75
2023/07/23 04:49:53;;;;;;;19.63;6.77;;;;;;;16.03;100.00;155432.84;4916441;29;20450;-75
2023/07/23 04:52:18;;;;;;;15.13;6.43;;;;;;;16.07;100.00;155444.53;4916697;29;20428;-73
2023/07/23 04:54:44;;;;;;;15.87;7.10;;;;;;;16.05;100.00;155438.03;4911508;29;20066;-75
2023/07/23 04:57:09;;;;;;;13.37;6.43;;;;;;;16.08;100.00;155447.19;4913769;29;20400;-75
2023/07/23 04:59:35;;;;;;;17.37;7.03;;;;;;;16.09;100.00;155448.44;4917004;29;20039;-74
2023/07/23 05:02:00;;;;;;;18.20;7.10;;;;;;;16.08;100.00;155445.84;4909374;29;20024;-75
2023/07/23 05:04:26;;;;;;;15.37;7.13;;;;;;;16.07;100.00;155444.53;4912451;29;20064;-74
2023/07/23 05:06:51;;;;;;;15.98;7.22;;;;;;;16.05;100.00;155438.03;4916181;29;20028;-75
2023/07/23 05:09:17;;;;;;;12.07;6.97;;;;;;;16.06;100.00;155440.69;4910570;29;20523;-74
2023/07/23 05:11:42;;;;;;;17.97;6.97;;;;;;;16.09;100.00;155449.78;4915043;29;20028;-74
2023/07/23 05:14:08;;;;;;;12.67;5.77;;;;;;;16.03;100.00;155432.84;4911423;29;20115;-74
2023/07/23 05:16:33;;;;;;;11.17;6.73;;;;;;;16.03;100.00;155432.84;4915410;29;20054;-74
2023/07/23 05:18:58;;;;;;;11.80;6.40;;;;;;;16.07;100.00;155443.28;4919580;29;20039;-74
2023/07/23 05:21:24;;;;;;;9.00;5.80;;;;;;;16.08;100.00;155445.84;4913795;29;20163;-74
2023/07/23 05:23:49;;;;;;;8.80;5.47;;;;;;;16.03;100.00;155432.84;4915719;29;20036;-74
2023/07/23 05:26:14;;;;;;;11.77;5.73;;;;;;;16.03;100.00;155432.84;4915650;29;20412;-74
2023/07/23 05:28:41;;;;;;;15.30;6.47;;;;;;;16.02;100.00;155431.53;4916202;29;20036;-74
2023/07/23 05:31:10;;;;;;;16.38;7.03;;;;;;;15.98;100.00;155421.16;4913818;29;20492;-75
2023/07/23 05:33:36;;;;;;;11.75;6.28;;;;;;;15.93;100.00;155408.16;4916141;29;20111;-75
2023/07/23 05:36:02;;;;;;;15.33;6.40;;;;;;;15.89;100.00;155396.44;4915810;29;20046;-74
2023/07/23 05:38:30;;;;;;;13.00;6.37;;;;;;;15.84;100.00;155383.47;4883574;29;20123;-74
2023/07/23 05:40:58;;;;;;;14.45;6.95;;;;;;;15.82;100.00;155379.56;4915079;29;20405;-75
2023/07/23 05:43:24;;;;;;;13.90;6.32;;;;;;;15.72;100.00;155353.56;4914604;29;20598;-74
2023/07/23 05:45:51;;;;;;;13.83;6.87;;;;;;;15.74;100.00;155357.47;4894392;29;20024;-74
2023/07/23 05:48:16;;;;;;;;;;;;;;;15.70;100.00;155348.34;4915064;29;20492;-74
2023/07/23 05:50:42;;;;;;;14.68;6.57;;;;;;;15.64;100.00;155331.47;4894465;29;19922;-73
2023/07/23 05:53:07;;;;;;;18.93;7.80;;;;;;;15.63;100.00;155328.88;4916799;29;20024;-75
2023/07/23 05:55:33;;;;;;;18.63;7.73;;;;;;;15.59;100.00;155319.75;4894457;29;20020;-74
2023/07/23 05:57:58;;;;;;;15.87;6.87;;;;;;;15.57;100.00;155314.56;4897036;29;20327;-74
2023/07/23 06:00:23;;;;;;;15.30;6.97;;;;;;;15.55;100.00;155308.06;4914628;29;20488;-75
2023/07/23 06:02:49;;;;;;;13.07;6.53;;;;;;;15.61;100.00;155323.66;4916466;29;20036;-74
2023/07/23 06:05:14;;;;;;;17.37;6.87;;;;;;;15.60;100.00;155322.38;4914498;29;20464;-75
2023/07/23 06:07:41;;;;;;;16.67;6.90;;;;;;;15.59;100.00;155319.75;4916548;29;20035;-75
2023/07/23 06:10:08;;;;;;;12.20;6.72;;;;;;;15.58;100.00;155315.88;4898779;29;20374;-74
2023/07/23 06:12:34;;;;;;;11.35;7.30;;;;;;;15.56;100.00;155310.66;4913544;29;20024;-74
2023/07/23 06:14:59;;;;;;;13.37;7.27;;;;;;;15.53;100.00;155302.88;4899210;29;20031;-75
2023/07/23 06:17:25;;;;;;;14.57;7.40;;;;;;;15.58;100.00;155317.16;4913628;29;20032;-75
2023/07/23 06:19:50;;;;;;;12.43;7.77;;;;;;;15.52;100.00;155301.56;4910399;29;20056;-76
2023/07/23 06:22:17;;;;;;;14.87;7.07;;;;;;;15.54;100.00;155305.47;4895878;29;20087;-74
2023/07/23 06:24:42;;;;;;;10.60;6.80;;;;;;;15.51;100.00;155297.66;4915854;29;20071;-76
2023/07/23 06:27:08;;;;;;;17.43;6.97;;;;;;;15.50;100.00;155295.06;4915931;29;20050;-75
2023/07/23 06:29:33;;;;;;;16.60;7.03;;;;;;;15.50;100.00;155295.06;4897782;29;20051;-75
2023/07/23 06:31:59;;;;;;;19.33;7.53;;;;;;;15.50;100.00;155296.38;4896991;29;20042;-74
2023/07/23 06:34:24;;;;;;;10.83;7.47;;;;;;;15.52;100.00;155301.56;4912454;29;20028;-74
2023/07/23 06:36:50;;;;;;;15.23;8.20;;;;;;;15.66;100.00;155337.97;4915621;29;20028;-75
2023/07/23 06:39:15;;;;;;;15.23;7.80;;;;;;;15.70;100.00;155348.34;4895126;29;20473;-75
2023/07/23 06:41:41;;;;;;;18.80;7.90;;;;;;;15.67;100.00;155339.25;4897214;29;20551;-75
2023/07/23 06:44:06;;;;;;;17.87;8.30;;;;;;;15.68;100.00;155341.88;4911230;29;20036;-74
2023/07/23 06:46:32;;;;;;;16.37;7.57;;;;;;;15.61;100.00;155324.97;4895902;29;20497;-75
2023/07/23 06:48:57;;;;;;;15.07;8.13;;;;;;;15.69;100.00;155345.75;4913883;29;20043;-73
2023/07/23 06:51:23;;;;;;;13.07;8.00;;;;;;;15.65;100.00;155335.38;4880635;29;20119;-75
2023/07/23 06:53:48;;;;;;;18.63;8.13;;;;;;;15.71;100.00;155350.97;4892021;29;20095;-74
2023/07/23 06:56:14;;;;;;;11.40;7.70;;;;;;;15.72;100.00;155352.25;4908769;29;21500;-75
2023/07/23 06:58:39;;;;;;;11.43;7.13;;;;;;;15.77;100.00;155366.56;4896137;29;20409;-76
2023/07/23 07:01:06;;;;;;;13.47;6.93;;;;;;;15.79;100.00;155370.47;4892434;29;20119;-75
2023/07/23 07:03:32;;;;;;;;;;;;;;;15.77;100.00;155365.25;4892371;29;20039;-75
2023/07/23 07:05:59;;;;;;;15.30;6.88;;;;;;;15.80;100.00;155373.06;4914216;29;19919;-76
2023/07/23 07:08:25;;;;;;;;;;;;;;;15.79;100.00;155370.47;4908288;29;20058;-75
2023/07/23 07:10:59;;;;;;;13.35;7.15;;;;;;;15.84;100.00;155383.47;4899630;29;20297;-75
2023/07/23 07:13:29;;;;;;;17.30;7.70;;;;;;;15.88;100.00;155393.84;4897608;29;20036;-75
2023/07/23 07:15:54;;;;;;;14.07;7.20;;;;;;;15.92;100.00;155404.25;4914271;29;20043;-74
2023/07/23 07:18:20;;;;;;;15.00;7.40;;;;;;;16.00;100.00;155425.09;4915311;29;20083;-74
2023/07/23 07:21:00;;;;;;;15.57;7.80;;;;;;;15.99;100.00;155423.75;4906652;29;20044;-74
2023/07/23 07:23:29;;;;;;;10.02;6.45;;;;;;;16.08;100.00;155445.84;4911147;29;20515;-74
2023/07/23 07:25:56;;;;;;;12.30;7.13;;;;;;;16.07;100.00;155443.28;4914439;29;20076;-75
2023/07/23 07:28:21;;;;;;;11.38;6.68;;;;;;;16.14;100.00;155461.47;4915312;29;20060;-75
2023/07/23 07:30:47;;;;;;;16.13;7.60;;;;;;;16.15;100.00;155464.06;4910318;29;20032;-76
2023/07/23 07:33:12;;;;;;;19.37;8.60;;;;;;;16.15;100.00;155464.06;4914047;29;20064;-75
2023/07/23 07:35:38;;;;;;;15.10;6.80;;;;;;;16.15;100.00;155465.38;4897277;29;20119;-75
2023/07/23 07:38:03;;;;;;;12.43;7.40;;;;;;;16.18;100.00;155471.88;4913620;29;20058;-74
2023/07/23 07:40:30;;;;;;;9.73;6.30;;;;;;;16.23;100.00;155484.88;4915937;29;20047;-73
2023/07/23 07:42:55;;;;;;;9.77;6.93;;;;;;;16.13;100.00;155458.88;4919156;29;20396;-74
2023/07/23 07:45:21;;;;;;;11.50;6.63;;;;;;;16.19;100.00;155474.47;4918517;29;20039;-75
2023/07/23 07:47:46;;;;;;;12.97;7.67;;;;;;;16.15;100.00;155464.06;4916608;29;20114;-76
2023/07/23 07:50:12;;;;;;;10.17;6.90;;;;;;;16.18;100.00;155471.88;4918461;29;20032;-74
2023/07/23 07:52:37;;;;;;;11.60;6.33;;;;;;;16.26;100.00;155492.66;4919437;29;20039;-75
2023/07/23 07:55:03;;;;;;;17.47;7.27;;;;;;;16.29;100.00;155500.47;4912918;29;20401;-75
2023/07/23 07:57:30;;;;;;;9.77;7.03;;;;;;;16.32;100.00;155509.56;4911041;29;20777;-75
2023/07/23 07:59:56;;;;;;;11.27;6.85;;;;;;;16.40;100.00;155530.47;4912670;29;20027;-73
2023/07/23 08:02:21;;;;;;;11.57;6.53;;;;;;;16.40;100.00;155530.47;4914326;29;20134;-74
2023/07/23 08:04:48;;;;;;;10.93;7.23;;;;;;;16.43;100.00;155538.22;4897874;29;20032;-74
2023/07/23 08:07:15;;;;;;;11.73;6.38;;;;;;;16.47;100.00;155547.34;4921187;29;20392;-75
2023/07/23 08:09:43;;;;;;;9.32;6.28;;;;;;;16.49;100.00;155553.84;4920160;29;20032;-75
2023/07/23 08:12:11;;;;;;;11.93;6.82;;;;;;;16.57;100.00;155573.34;4929774;29;20028;-76
2023/07/23 08:14:37;;;;;;;12.93;6.32;;;;;;;16.61;100.00;155583.78;4920486;29;20020;-76
2023/07/23 08:17:03;;;;;;;9.98;6.95;;;;;;;16.62;100.00;155586.34;4919944;29;20032;-75
2023/07/23 08:19:30;;;;;;;7.75;6.32;;;;;;;16.65;100.00;155595.44;4916090;29;20080;-75
2023/07/23 08:21:56;;;;;;;10.27;6.53;;;;;;;16.70;100.00;155607.19;4933567;29;20036;-75
2023/07/23 08:24:22;;;;;;;13.00;6.83;;;;;;;16.76;100.00;155622.81;4934070;29;20769;-75
2023/07/23 08:26:50;;;;;;;16.83;7.63;;;;;;;16.75;100.00;155621.47;4936784;29;20119;-74
2023/07/23 08:29:19;;;;;;;10.38;6.00;;;;;;;16.78;100.00;155629.31;4917807;29;20114;-75
2023/07/23 08:31:45;;;;;;;9.75;7.35;;;;;;;16.82;100.00;155639.69;4918846;29;20110;-76
2023/07/23 08:34:11;;;;;;;8.02;5.63;;;;;;;16.76;100.00;155622.81;4918544;29;20039;-75
2023/07/23 08:36:37;;;;;;;8.20;5.80;;;;;;;16.77;100.00;155625.38;4919266;29;20559;-75
2023/07/23 08:39:04;;;;;;;7.13;5.47;;;;;;;16.77;100.00;155626.72;4934752;29;20032;-76
2023/07/23 08:42:07;;;;;;;9.38;6.20;;;;;;;16.78;100.00;155628.00;4919412;29;20082;-76
2023/07/23 08:44:38;;;;;;;9.32;6.00;;;;;;;16.79;100.00;155631.91;4931309;29;20020;-74
2023/07/23 08:47:12;;;;;;;8.20;6.10;;;;;;;16.85;100.00;155646.19;4936401;29;20043;-74
2023/07/23 08:49:40;;;;;;;9.95;6.05;;;;;;;16.87;100.00;155651.41;4935020;29;20052;-76
2023/07/23 08:52:06;;;;;;;7.72;5.82;;;;;;;16.92;100.00;155665.69;4918450;29;20027;-75
2023/07/23 08:54:32;;;;;;;9.82;6.65;;;;;;;16.92;100.00;155664.44;4941701;29;20407;-76
2023/07/23 08:56:58;;;;;;;9.82;6.32;;;;;;;16.92;100.00;155664.44;4936167;29;20114;-75
2023/07/23 08:59:26;;;;;;;8.32;6.40;;;;;;;16.98;100.00;155680.03;4930966;29;20024;-75
2023/07/23 09:01:53;;;;;;;9.27;6.03;;;;;;;16.95;100.00;155672.22;4933645;29;20508;-74
2023/07/23 09:04:18;;;;;;;9.63;5.78;;;;;;;16.97;100.00;155677.44;4915788;29;20034;-74
2023/07/23 09:06:44;;;;;;;9.10;6.17;;;;;;;16.97;100.00;155677.44;4918940;29;20388;-75
2023/07/23 09:09:11;;;;;;;8.33;5.67;;;;;;;17.02;100.00;155690.47;4932431;29;20046;-76
2023/07/23 09:11:37;;;;;;;6.80;6.10;;;;;;;17.04;100.00;155696.97;4935712;29;20032;-76
2023/07/23 09:14:11;;;;;;;10.85;6.20;;;;;;;16.97;100.00;155677.44;4935035;29;20032;-76
2023/07/23 09:16:38;;;;;;;7.68;5.30;;;;;;;16.95;100.00;155673.53;4927069;29;20027;-76
2023/07/23 09:19:04;;;;;;;7.65;5.55;;;;;;;16.91;100.00;155661.84;4933263;29;20499;-76
2023/07/23 09:21:30;;;;;;;7.22;5.30;;;;;;;16.76;100.00;155622.81;4934341;29;20119;-75
2023/07/23 09:24:02;;;;;;;7.43;5.40;;;;;;;16.70;100.00;155607.19;4935637;29;20140;-76
2023/07/23 09:26:28;;;;;;;8.02;5.10;;;;;;;16.61;100.00;155583.78;4932520;29;20110;-76
2023/07/23 09:28:57;;;;;;;8.07;5.13;;;;;;;16.58;100.00;155577.25;4935979;29;20502;-76
2023/07/23 09:31:26;;;;;;;8.02;6.03;;;;;;;16.61;100.00;151459.75;4933864;29;20043;-76
2023/07/23 09:33:57;;;;;;;6.32;5.47;;;;;;;16.58;100.00;144472.97;4934558;29;20123;-76
2023/07/23 09:36:24;;;;;;;8.65;6.22;;;;;;;16.62;100.00;139833.38;4916578;29;20031;-77
2023/07/23 09:38:53;;;;;;;;;;;;;;;16.64;100.00;135907.97;4917121;29;20100;-76
2023/07/23 09:41:19;;;;;;;8.90;5.65;;;;;;;16.75;100.00;132361.69;4932919;29;20010;-77
2023/07/23 09:43:45;;;;;;;8.32;5.82;;;;;;;16.73;100.00;133784.88;4914755;29;20110;-76
2023/07/23 09:46:10;;;;;;;10.43;6.20;;;;;;;16.72;100.00;138425.84;4924118;29;20071;-76
2023/07/23 09:48:37;;;;;;;10.03;6.43;;;;;;;16.78;100.00;143446.41;4917861;29;20407;-77
2023/07/23 09:51:03;;;;;;;9.73;6.32;;;;;;;16.86;100.00;148540.63;4932753;29;20050;-77
2023/07/23 09:53:28;;;;;;;7.77;6.40;;;;;;;16.93;100.00;152867.53;4935802;29;20492;-76
2023/07/23 09:55:55;;;;;;;13.93;6.47;;;;;;;17.00;100.00;155685.22;4912131;29;20507;-76
2023/07/23 09:58:22;;;;;;;8.40;6.57;;;;;;;17.00;100.00;155685.22;4934061;29;20024;-76
2023/07/23 10:00:49;;;;;;;8.65;7.25;;;;;;;17.16;100.00;155728.19;4933191;29;20031;-76
2023/07/23 10:03:17;;;;;;;9.93;6.95;;;;;;;17.32;100.00;155768.50;4921533;29;20488;-76
2023/07/23 10:05:42;;;;;;;11.07;6.28;;;;;;;17.35;100.00;155776.34;4933368;29;20028;-76
2023/07/23 10:08:07;;;;;;;7.90;6.33;;;;;;;17.39;100.00;155786.81;4919151;29;20039;-76
2023/07/23 10:10:33;;;;;;;15.33;7.80;;;;;;;17.43;100.00;155798.50;4933072;29;20023;-76
2023/07/23 10:12:58;;;;;;;13.87;7.73;;;;;;;17.61;100.00;155844.09;4933915;29;20031;-76
2023/07/23 10:15:24;;;;;;;8.83;7.57;;;;;;;17.66;100.00;155857.09;4933408;29;20046;-76
2023/07/23 10:17:54;;;;;;;11.23;7.23;;;;;;;17.68;100.00;155862.28;4933959;29;20507;-76
2023/07/23 10:20:21;;;;;;;20.05;8.48;;;;;;;17.73;100.00;155876.63;4925551;29;20124;-76
2023/07/23 10:22:47;;;;;;;14.32;7.53;;;;;;;17.91;100.00;155922.16;4931481;29;20035;-76
2023/07/23 10:25:33;;;;;;;9.30;7.32;;;;;;;17.95;100.00;155932.59;4915512;29;20111;-76
2023/07/23 10:28:03;;;;;;;11.15;7.43;;;;;;;18.05;100.00;155958.66;4932092;29;20412;-76
2023/07/23 10:30:30;;;;;;;10.57;7.43;;;;;;;18.03;100.00;155953.44;4914472;29;20031;-76
2023/07/23 10:33:11;;;;;;;9.65;7.00;;;;;;;18.02;100.00;155950.81;4916443;29;20087;-76
2023/07/23 10:36:06;;;;;;;12.55;6.72;;;;;;;18.21;100.00;156000.31;4929637;29;20535;-77
2023/07/23 10:38:34;;;;;;;8.98;6.93;;;;;;;18.29;100.00;156021.13;4932366;29;20329;-76
2023/07/23 10:41:01;;;;;;;10.57;6.97;;;;;;;18.40;100.00;156049.88;4915583;29;20511;-75
2023/07/23 10:43:50;;;;;;;9.43;6.72;;;;;;;18.25;100.00;156010.75;4933478;29;20441;-76
2023/07/23 10:46:20;;;;;;;9.73;7.13;;;;;;;18.35;100.00;156036.84;4932410;29;20081;-76
2023/07/23 10:48:48;;;;;;;11.25;7.35;;;;;;;18.40;100.00;156049.88;4931437;29;20051;-75
2023/07/23 10:51:16;;;;;;;9.02;6.55;;;;;;;18.38;100.00;156044.63;4913941;29;20032;-76
2023/07/23 10:53:55;;;;;;;10.65;6.47;;;;;;;18.39;100.00;156048.56;4933353;29;20392;-75
2023/07/23 10:56:25;;;;;;;8.38;7.10;;;;;;;18.50;100.00;156075.88;4930820;29;20106;-76
2023/07/23 10:58:55;;;;;;;8.70;6.88;;;;;;;18.73;100.00;156135.84;4932269;29;20031;-76
2023/07/23 11:01:23;;;;;;;8.82;6.57;;;;;;;18.99;100.00;156203.63;4933240;29;20119;-76
2023/07/23 11:03:49;;;;;;;7.13;5.80;;;;;;;18.91;100.00;156182.75;4938079;29;20039;-75
2023/07/23 11:06:33;;;;;;;9.40;6.00;;;;;;;18.80;100.00;156154.06;4931643;29;20031;-75
2023/07/23 11:09:04;;;;;;;7.78;6.47;;;;;;;18.61;100.00;156105.88;4930982;29;20040;-74
2023/07/23 11:11:40;;;;;;;10.13;6.78;;;;;;;18.79;100.00;156152.75;4933755;29;20062;-76